Time;durP1;ratioP1;P1;durP2;ratioP2;P2;SDS_P1;SDS_P2;PMS_P1;PMS_P2;Temp;Humidity;BMP_temperature;BMP_pressure;BME280_temperature;BME280_humidity;BME280_pressure;Samples;Min_cycle;Max_cycle;Signal;HPM_P1;HPM_P2
2022/09/05 00:02:11;;;;;;;;;;;17.50;99.90;;;;;;5070771;28;19912;-67
2022/09/05 00:04:45;;;;;;;;;;;17.50;99.90;;;;;;5086768;28;19940;-67
2022/09/05 00:07:14;;;;;;;;;;;17.50;99.90;;;;;;5070759;28;19909;-67
2022/09/05 00:09:47;;;;;;;;;;;17.50;99.90;;;;;;5070642;28;19912;-67
2022/09/05 00:12:13;;;;;;;;;;;17.50;99.90;;;;;;5070568;28;19914;-67
2022/09/05 00:14:58;;;;;;;;;;;17.50;99.90;;;;;;5070824;28;19919;-67
2022/09/05 00:20:06;;;;;;;;;;;17.40;99.90;;;;;;5091310;27;20281;-67
2022/09/05 00:22:44;;;;;;;;;;;17.40;99.90;;;;;;5091210;28;19913;-67
2022/09/05 00:25:30;;;;;;;;;;;17.30;99.90;;;;;;5091110;28;19955;-67
2022/09/05 00:30:46;;;;;;;;;;;17.20;99.90;;;;;;5071109;28;20397;-67
2022/09/05 00:33:26;;;;;;;;;;;17.10;99.90;;;;;;5071540;28;20371;-67
2022/09/05 00:35:58;;;;;;;;;;;17.10;99.90;;;;;;5070914;28;19913;-67
2022/09/05 00:38:25;;;;;;;;;;;17.10;99.90;;;;;;5070791;28;19908;-67
2022/09/05 00:40:55;;;;;;;;;;;17.00;99.90;;;;;;5070842;28;19970;-68
2022/09/05 00:43:23;;;;;;;;;;;17.10;99.90;;;;;;5070698;28;19952;-67
2022/09/05 00:45:54;;;;;;;;;;;17.10;99.90;;;;;;5070967;28;19909;-67
2022/09/05 00:48:24;;;;;;;;;;;17.10;99.90;;;;;;5070571;28;19916;-67
2022/09/05 00:51:00;;;;;;;;;;;17.10;99.90;;;;;;5070885;28;19912;-67
2022/09/05 00:53:45;;;;;;;;;;;17.10;99.90;;;;;;5070826;28;20294;-67
2022/09/05 00:56:20;;;;;;;;;;;17.10;99.90;;;;;;5070440;28;20391;-67
2022/09/05 00:58:58;;;;;;;;;;;17.20;99.90;;;;;;5070491;28;19916;-67
2022/09/05 01:01:26;;;;;;;;;;;17.30;99.90;;;;;;5070652;28;20363;-67
2022/09/05 01:04:01;;;;;;;;;;;17.20;99.90;;;;;;5070610;28;20428;-67
2022/09/05 01:06:32;;;;;;;;;;;17.20;99.90;;;;;;5070327;28;19952;-67
2022/09/05 01:09:09;;;;;;;;;;;17.20;99.90;;;;;;5070421;28;20350;-68
2022/09/05 01:11:55;;;;;;;;;;;17.20;99.90;;;;;;5070113;28;19909;-67
2022/09/05 01:14:26;;;;;;;;;;;17.10;99.90;;;;;;5070064;28;20379;-68
2022/09/05 01:17:12;;;;;;;;;;;17.10;99.90;;;;;;5070373;28;19912;-67
2022/09/05 01:19:57;;;;;;;;;;;17.10;99.90;;;;;;5069988;28;19909;-68
2022/09/05 01:22:34;;;;;;;;;;;17.10;99.90;;;;;;5069940;28;19909;-67
2022/09/05 01:25:13;;;;;;;;;;;17.10;99.90;;;;;;5070160;28;20322;-68
2022/09/05 01:27:53;;;;;;;;;;;17.10;99.90;;;;;;5069826;28;19962;-67
2022/09/05 01:30:38;;;;;;;;;;;17.10;99.90;;;;;;5087116;28;19921;-67
2022/09/05 01:33:07;;;;;;;;;;;17.10;99.90;;;;;;5089995;28;20414;-68
2022/09/05 01:35:40;;;;;;;;;;;17.10;99.90;;;;;;5090239;28;19915;-68
2022/09/05 01:38:26;;;;;;;;;;;17.10;99.90;;;;;;5090168;28;19959;-68
2022/09/05 01:43:42;;;;;;;;;;;17.00;99.90;;;;;;5091341;27;19912;-67
2022/09/05 01:46:20;;;;;;;;;;;17.00;99.90;;;;;;5091475;28;20286;-67
2022/09/05 01:48:51;;;;;;;;;;;16.90;99.90;;;;;;5091159;28;20010;-67
2022/09/05 01:51:26;;;;;;;;;;;16.90;99.90;;;;;;5091016;28;19912;-67
2022/09/05 01:53:56;;;;;;;;;;;16.80;99.90;;;;;;5091252;28;20017;-67
2022/09/05 01:56:32;;;;;;;;;;;16.90;99.90;;;;;;5090892;28;19962;-67
2022/09/05 01:59:17;;;;;;;;;;;16.80;99.90;;;;;;5090936;28;19909;-67
2022/09/05 02:01:54;;;;;;;;;;;16.80;99.90;;;;;;5090801;28;20342;-68
2022/09/05 02:04:39;;;;;;;;;;;16.70;99.90;;;;;;5090812;28;20293;-67
2022/09/05 02:07:07;;;;;;;;;;;16.70;99.90;;;;;;5090772;28;20290;-67
2022/09/05 02:09:48;;;;;;;;;;;16.70;99.90;;;;;;5090736;28;19912;-67
2022/09/05 02:12:16;;;;;;;;;;;16.70;99.90;;;;;;5090654;28;19908;-67
2022/09/05 02:14:44;;;;;;;;;;;16.70;99.90;;;;;;5090549;28;20015;-67
2022/09/05 02:17:29;;;;;;;;;;;16.60;99.90;;;;;;5090803;28;20382;-67
2022/09/05 02:19:59;;;;;;;;;;;16.50;99.90;;;;;;5090787;28;19930;-67
2022/09/05 02:22:27;;;;;;;;;;;16.50;99.90;;;;;;5089471;28;19912;-66
2022/09/05 02:25:00;;;;;;;;;;;16.50;99.90;;;;;;5090416;28;19908;-67
2022/09/05 02:27:30;;;;;;;;;;;16.40;99.90;;;;;;5090648;28;20396;-67
2022/09/05 02:30:04;;;;;;;;;;;16.40;99.90;;;;;;5090346;28;19915;-67
2022/09/05 02:32:38;;;;;;;;;;;16.40;99.90;;;;;;5090519;28;19919;-67
2022/09/05 02:35:11;;;;;;;;;;;16.30;99.90;;;;;;5090235;28;20320;-67
2022/09/05 02:37:46;;;;;;;;;;;16.30;99.90;;;;;;5090400;28;20268;-67
2022/09/05 02:40:24;;;;;;;;;;;16.30;99.90;;;;;;5090438;28;20291;-67
2022/09/05 02:43:00;;;;;;;;;;;16.30;99.90;;;;;;5088627;28;19924;-66
2022/09/05 02:45:46;;;;;;;;;;;16.20;99.90;;;;;;5090043;28;19957;-67
2022/09/05 02:48:18;;;;;;;;;;;16.20;99.90;;;;;;5090033;28;19916;-67
2022/09/05 02:50:48;;;;;;;;;;;16.20;99.90;;;;;;5122903;28;19908;-67
2022/09/05 02:53:15;;;;;;;;;;;16.10;99.90;;;;;;5085683;28;20001;-67
2022/09/05 02:55:59;;;;;;;;;;;16.00;99.90;;;;;;5076359;28;20011;-67
2022/09/05 02:58:41;;;;;;;;;;;16.00;99.90;;;;;;5076253;28;19909;-67
2022/09/05 03:01:11;;;;;;;;;;;15.90;99.90;;;;;;5076412;28;20278;-67
2022/09/05 03:03:40;;;;;;;;;;;15.90;99.90;;;;;;5076457;28;19909;-67
2022/09/05 03:06:25;;;;;;;;;;;15.80;99.90;;;;;;5076153;28;19908;-67
2022/09/05 03:09:11;;;;;;;;;;;15.80;99.90;;;;;;5076184;28;19915;-67
2022/09/05 03:11:57;;;;;;;;;;;15.70;99.90;;;;;;5074753;28;19912;-67
2022/09/05 03:14:42;;;;;;;;;;;15.70;99.90;;;;;;5075996;28;19908;-66
2022/09/05 03:17:27;;;;;;;;;;;15.80;99.90;;;;;;5076000;28;20375;-67
2022/09/05 03:19:55;;;;;;;;;;;15.80;99.90;;;;;;5075907;28;20443;-67
2022/09/05 03:22:38;;;;;;;;;;;15.80;99.90;;;;;;5075822;28;19912;-67
2022/09/05 03:25:23;;;;;;;;;;;15.80;99.90;;;;;;5076044;28;20362;-67
2022/09/05 03:28:09;;;;;;;;;;;15.80;99.90;;;;;;5075849;28;20371;-67
2022/09/05 03:30:42;;;;;;;;;;;15.80;99.90;;;;;;5075681;28;19995;-67
2022/09/05 03:36:15;;;;;;;;;;;15.90;99.90;;;;;;5091353;27;19912;-67
2022/09/05 03:41:37;;;;;;;;;;;15.80;99.90;;;;;;5091277;27;20378;-67
2022/09/05 03:44:13;;;;;;;;;;;15.80;99.90;;;;;;5091437;28;19935;-67
2022/09/05 03:46:45;;;;;;;;;;;15.70;99.90;;;;;;5091116;28;19916;-68
2022/09/05 03:49:20;;;;;;;;;;;15.80;99.90;;;;;;5090980;28;19915;-68
2022/09/05 03:52:01;;;;;;;;;;;15.70;99.90;;;;;;5091306;28;19908;-67
2022/09/05 03:54:37;;;;;;;;;;;15.80;99.90;;;;;;5091288;28;19908;-67
2022/09/05 03:57:22;;;;;;;;;;;15.80;99.90;;;;;;5091226;28;19931;-67
2022/09/05 04:00:08;;;;;;;;;;;15.80;99.90;;;;;;5090819;28;19917;-68
2022/09/05 04:02:38;;;;;;;;;;;15.70;99.90;;;;;;5090876;28;20397;-67
2022/09/05 04:05:09;;;;;;;;;;;15.70;99.90;;;;;;5091094;28;20002;-68
2022/09/05 04:07:44;;;;;;;;;;;15.70;99.90;;;;;;5089508;28;19909;-68
2022/09/05 04:10:23;;;;;;;;;;;15.70;99.90;;;;;;5123923;28;19915;-68
2022/09/05 04:12:51;;;;;;;;;;;15.70;99.90;;;;;;5091281;28;20375;-68
2022/09/05 04:15:35;;;;;;;;;;;15.70;99.90;;;;;;5091154;28;19908;-68
2022/09/05 04:18:03;;;;;;;;;;;15.70;99.90;;;;;;5090782;28;20367;-68
2022/09/05 04:20:35;;;;;;;;;;;15.70;99.90;;;;;;5089311;28;19912;-68
2022/09/05 04:23:23;;;;;;;;;;;15.70;99.90;;;;;;5090472;28;20378;-67
2022/09/05 04:25:54;;;;;;;;;;;15.70;99.90;;;;;;5090224;28;19991;-67
2022/09/05 04:28:39;;;;;;;;;;;15.70;99.90;;;;;;5090593;28;19915;-68
2022/09/05 04:31:11;;;;;;;;;;;15.80;99.90;;;;;;5090452;28;19909;-67
2022/09/05 04:33:42;;;;;;;;;;;15.80;99.90;;;;;;5090536;28;19932;-68
2022/09/05 04:36:27;;;;;;;;;;;15.80;99.90;;;;;;5090410;28;20371;-68
2022/09/05 04:39:13;;;;;;;;;;;15.80;99.90;;;;;;5090059;28;19909;-67
2022/09/05 04:41:41;;;;;;;;;;;15.80;99.90;;;;;;5110365;28;19925;-68
2022/09/05 04:44:14;;;;;;;;;;;15.90;99.90;;;;;;5110313;28;19935;-68
2022/09/05 04:46:42;;;;;;;;;;;15.90;99.90;;;;;;5110544;28;20426;-68
2022/09/05 04:49:12;;;;;;;;;;;15.90;99.90;;;;;;5110465;28;19912;-68
2022/09/05 04:51:58;;;;;;;;;;;15.90;99.90;;;;;;5103388;28;19908;-68
2022/09/05 04:54:43;;;;;;;;;;;16.00;99.90;;;;;;5096431;28;20297;-68
2022/09/05 04:57:15;;;;;;;;;;;16.00;99.90;;;;;;5096323;28;19912;-68
2022/09/05 05:00:01;;;;;;;;;;;16.20;99.90;;;;;;5096671;28;19912;-69
2022/09/05 05:02:43;;;;;;;;;;;16.20;99.90;;;;;;5096343;28;19909;-68
2022/09/05 05:05:10;;;;;;;;;;;16.40;99.90;;;;;;5096346;28;19974;-68
2022/09/05 05:07:45;;;;;;;;;;;16.50;99.90;;;;;;5096318;28;19923;-68
2022/09/05 05:10:17;;;;;;;;;;;16.60;99.90;;;;;;5096533;28;20057;-68
2022/09/05 05:12:53;;;;;;;;;;;16.70;99.90;;;;;;5096500;28;20290;-68
2022/09/05 05:15:20;;;;;;;;;;;16.90;99.90;;;;;;5096470;28;19915;-68
2022/09/05 05:17:52;;;;;;;;;;;17.00;99.90;;;;;;5096116;28;20387;-68
2022/09/05 05:20:21;;;;;;;;;;;17.20;99.90;;;;;;5077766;28;19966;-68
2022/09/05 05:22:50;;;;;;;;;;;17.30;99.90;;;;;;5078559;28;20263;-68
2022/09/05 05:25:16;;;;;;;;;;;17.50;99.90;;;;;;5096038;28;19935;-67
2022/09/05 05:27:48;;;;;;;;;;;17.70;99.90;;;;;;5096134;28;19946;-67
2022/09/05 05:30:23;;;;;;;;;;;17.80;99.90;;;;;;5095873;28;19912;-67
2022/09/05 05:32:51;;;;;;;;;;;17.90;99.90;;;;;;5096146;28;20007;-68
2022/09/05 05:35:20;;;;;;;;;;;17.90;99.90;;;;;;5096113;28;19908;-68
2022/09/05 05:37:50;;;;;;;;;;;18.10;99.90;;;;;;5095984;28;20289;-67
2022/09/05 05:43:12;;;;;;;;;;;18.30;99.90;;;;;;5091242;27;19934;-67
2022/09/05 05:45:37;;;;;;;;;;;18.40;99.90;;;;;;5091338;28;19913;-67
2022/09/05 05:48:04;;;;;;;;;;;18.70;99.90;;;;;;5087709;28;19916;-67
2022/09/05 05:50:42;;;;;;;;;;;19.10;99.90;;;;;;5090810;28;19908;-67
2022/09/05 05:53:18;;;;;;;;;;;19.50;99.90;;;;;;5090927;28;20389;-68
2022/09/05 05:58:42;;;;;;;;;;;22.00;99.90;;;;;;5070850;28;19913;-65
2022/09/05 06:04:09;;;;;;;;;;;23.90;99.90;;;;;;5066103;28;19936;-65
2022/09/05 06:06:54;;;;;;;;;;;24.30;99.90;;;;;;5049587;28;20364;-65
2022/09/05 06:09:40;;;;;;;;;;;24.30;99.90;;;;;;5030267;28;19914;-66
2022/09/05 06:12:25;;;;;;;;;;;24.00;99.90;;;;;;5049459;28;19968;-66
2022/09/05 06:15:11;;;;;;;;;;;24.60;99.90;;;;;;5049962;28;19913;-66
2022/09/05 06:17:57;;;;;;;;;;;25.60;99.90;;;;;;5049651;28;20352;-66
2022/09/05 06:20:42;;;;;;;;;;;25.40;99.90;;;;;;5055983;28;20022;-66
2022/09/05 06:23:26;;;;;;;;;;;25.50;99.90;;;;;;5061218;28;20008;-65
2022/09/05 06:26:12;;;;;;;;;;;26.20;99.90;;;;;;5039307;28;19913;-65
2022/09/05 06:28:57;;;;;;;;;;;27.00;99.90;;;;;;5059423;28;20368;-64
2022/09/05 06:31:33;;;;;;;;;;;27.40;99.90;;;;;;5066333;28;20395;-65
2022/09/05 06:34:11;;;;;;;;;;;28.60;98.80;;;;;;5055869;28;19909;-65
2022/09/05 06:36:46;;;;;;;;;;;28.50;96.40;;;;;;5069664;28;20369;-64
2022/09/05 06:39:15;;;;;;;;;;;29.40;96.50;;;;;;5054848;28;19960;-65
2022/09/05 06:42:01;;;;;;;;;;;29.80;94.60;;;;;;5066288;28;20004;-65
2022/09/05 06:44:34;;;;;;;;;;;29.60;93.60;;;;;;5059128;28;19958;-65
2022/09/05 06:47:05;;;;;;;;;;;30.10;93.20;;;;;;5056456;28;19917;-65
2022/09/05 06:49:51;;;;;;;;;;;30.50;92.60;;;;;;5042399;28;19913;-64
2022/09/05 06:52:36;;;;;;;;;;;30.20;91.70;;;;;;5047234;28;19921;-64
2022/09/05 06:55:22;;;;;;;;;;;29.60;92.40;;;;;;5063553;28;20469;-65
2022/09/05 06:58:03;;;;;;;;;;;29.90;92.40;;;;;;5050554;28;20264;-64
2022/09/05 07:00:33;;;;;;;;;;;30.30;92.20;;;;;;5060307;28;19960;-64
2022/09/05 07:03:12;;;;;;;;;;;30.50;91.00;;;;;;5065181;28;19921;-64
2022/09/05 07:05:45;;;;;;;;;;;31.00;90.60;;;;;;5070107;28;19988;-64
2022/09/05 07:08:21;;;;;;;;;;;31.30;88.00;;;;;;5082030;28;19916;-64
2022/09/05 07:10:54;;;;;;;;;;;31.30;88.50;;;;;;5077226;28;19962;-64
2022/09/05 07:13:26;;;;;;;;;;;32.20;86.80;;;;;;5068531;28;19913;-64
2022/09/05 07:16:00;;;;;;;;;;;32.50;83.80;;;;;;5043905;28;20378;-64
2022/09/05 07:18:26;;;;;;;;;;;;;;;;;;5057470;28;19913;-64
2022/09/05 07:20:54;;;;;;;;;;;33.10;79.80;;;;;;5041232;28;20342;-64
2022/09/05 07:23:39;;;;;;;;;;;32.40;81.50;;;;;;5054432;28;19944;-65
2022/09/05 07:26:07;;;;;;;;;;;32.30;80.80;;;;;;5065794;28;19958;-64
2022/09/05 07:28:33;;;;;;;;;;;31.40;82.20;;;;;;5062393;28;19947;-64
2022/09/05 07:31:01;;;;;;;;;;;31.60;83.10;;;;;;5052392;28;19913;-64
2022/09/05 07:33:28;;;;;;;;;;;32.00;80.40;;;;;;5070370;28;19909;-64
2022/09/05 07:35:57;;;;;;;;;;;31.60;82.30;;;;;;5045412;28;19995;-64
2022/09/05 07:38:25;;;;;;;;;;;32.30;80.90;;;;;;5058967;28;20390;-65
2022/09/05 07:40:58;;;;;;;;;;;32.20;79.90;;;;;;5045512;28;19917;-64
2022/09/05 07:43:27;;;;;;;;;;;32.80;77.80;;;;;;5072118;28;19919;-64
2022/09/05 07:46:01;;;;;;;;;;;33.10;76.90;;;;;;5029356;28;19921;-63
2022/09/05 07:48:27;;;;;;;;;;;33.30;75.60;;;;;;5034896;28;19909;-64
2022/09/05 07:50:56;;;;;;;;;;;33.10;76.40;;;;;;5026087;28;19913;-64
2022/09/05 07:53:23;;;;;;;;;;;33.90;74.60;;;;;;5056741;28;19909;-64
2022/09/05 07:55:52;;;;;;;;;;;33.40;75.30;;;;;;5042681;28;19917;-64
2022/09/05 07:58:20;;;;;;;;;;;33.50;74.60;;;;;;5048116;28;20392;-64
2022/09/05 08:00:50;;;;;;;;;;;33.40;74.20;;;;;;5023437;28;19912;-63
2022/09/05 08:03:16;;;;;;;;;;;33.40;73.40;;;;;;5047991;28;19921;-63
2022/09/05 08:05:44;;;;;;;;;;;33.70;73.00;;;;;;5054638;28;19919;-65
2022/09/05 08:08:13;;;;;;;;;;;33.40;73.00;;;;;;5048337;28;19987;-63
2022/09/05 08:10:42;;;;;;;;;;;33.50;73.70;;;;;;5041604;28;19920;-63
2022/09/05 08:13:10;;;;;;;;;;;32.90;73.30;;;;;;5048150;28;19913;-63
2022/09/05 08:15:37;;;;;;;;;;;32.80;74.70;;;;;;5048616;28;19913;-64
2022/09/05 08:18:22;;;;;;;;;;;33.10;73.90;;;;;;5034543;28;19909;-64
2022/09/05 08:20:59;;;;;;;;;;;33.70;72.10;;;;;;5050385;28;19956;-63
2022/09/05 08:23:44;;;;;;;;;;;34.00;71.70;;;;;;5054626;28;20339;-64
2022/09/05 08:26:12;;;;;;;;;;;34.50;71.20;;;;;;5033662;28;20013;-63
2022/09/05 08:28:52;;;;;;;;;;;34.00;71.10;;;;;;5037758;28;20355;-63
2022/09/05 08:31:20;;;;;;;;;;;33.70;71.20;;;;;;5054735;28;19909;-64
2022/09/05 08:33:47;;;;;;;;;;;34.60;70.30;;;;;;5051708;28;19913;-62
2022/09/05 08:38:50;;;;;;;;;;;33.70;70.10;;;;;;5067268;28;19917;-63
2022/09/05 08:41:36;;;;;;;;;;;33.80;70.70;;;;;;5049408;28;20451;-64
2022/09/05 08:44:15;;;;;;;;;;;34.10;68.90;;;;;;5049049;28;20363;-63
2022/09/05 08:47:01;;;;;;;;;;;34.50;68.50;;;;;;5050971;28;20310;-63
2022/09/05 08:49:46;;;;;;;;;;;34.30;68.20;;;;;;5049280;28;19932;-64
2022/09/05 08:52:17;;;;;;;;;;;34.60;68.30;;;;;;5038967;28;19913;-63
2022/09/05 08:57:48;;;;;;;;;;;34.60;67.40;;;;;;5069844;28;19919;-64
2022/09/05 09:00:15;;;;;;;;;;;34.40;66.40;;;;;;5039069;28;19913;-63
2022/09/05 09:03:00;;;;;;;;;;;34.70;65.90;;;;;;5048239;28;19919;-63
2022/09/05 09:05:46;;;;;;;;;;;34.50;66.20;;;;;;5050524;28;19959;-63
2022/09/05 09:08:16;;;;;;;;;;;34.10;67.90;;;;;;5048553;28;19967;-63
2022/09/05 09:11:01;;;;;;;;;;;33.90;67.20;;;;;;5030811;28;19909;-64
2022/09/05 09:13:31;;;;;;;;;;;33.40;66.30;;;;;;5043270;28;19914;-63
2022/09/05 09:16:16;;;;;;;;;;;33.70;66.10;;;;;;5049484;28;19952;-65
2022/09/05 09:18:59;;;;;;;;;;;33.80;65.50;;;;;;5030611;28;20288;-63
2022/09/05 09:21:45;;;;;;;;;;;34.00;65.70;;;;;;5031582;28;20337;-63
2022/09/05 09:24:30;;;;;;;;;;;33.80;65.60;;;;;;5034476;28;19967;-63
2022/09/05 09:26:58;;;;;;;;;;;33.70;65.80;;;;;;5033360;28;19997;-63
2022/09/05 09:29:24;;;;;;;;;;;33.40;65.70;;;;;;5030306;28;19910;-63
2022/09/05 09:32:00;;;;;;;;;;;33.00;66.80;;;;;;5040936;28;19924;-63
2022/09/05 09:37:14;;;;;;;;;;;33.50;64.50;;;;;;5062475;28;19923;-63
2022/09/05 09:39:59;;;;;;;;;;;34.10;63.40;;;;;;5048377;28;20294;-63
2022/09/05 09:42:35;;;;;;;;;;;33.10;66.60;;;;;;5050181;28;19929;-63
2022/09/05 09:45:18;;;;;;;;;;;33.40;64.70;;;;;;5049675;28;20363;-62
2022/09/05 09:50:44;;;;;;;;;;;32.50;66.40;;;;;;5071162;28;20298;-62
2022/09/05 09:53:23;;;;;;;;;;;32.60;64.80;;;;;;5060917;28;20331;-64
2022/09/05 09:56:04;;;;;;;;;;;32.70;63.50;;;;;;5033621;28;20372;-63
2022/09/05 09:58:49;;;;;;;;;;;33.00;62.40;;;;;;5030693;28;19917;-62
2022/09/05 10:04:21;;;;;;;;;;;32.90;63.10;;;;;;5083245;28;19934;-63
2022/09/05 10:07:06;;;;;;;;;;;33.00;63.00;;;;;;5070537;28;19926;-62
2022/09/05 10:09:37;;;;;;;;;;;32.60;63.60;;;;;;5068464;28;19924;-63
2022/09/05 10:12:13;;;;;;;;;;;33.50;60.30;;;;;;5070653;28;19909;-62
2022/09/05 10:14:44;;;;;;;;;;;34.10;59.50;;;;;;5066809;28;19919;-62
2022/09/05 10:19:56;;;;;;;;;;;33.90;59.50;;;;;;5097143;27;1876025;-61
2022/09/05 10:22:30;;;;;;;;;;;33.30;59.90;;;;;;5149137;27;19915;-64
2022/09/05 10:25:08;;;;;;;;;;;33.30;60.70;;;;;;5140149;27;19911;-63
2022/09/05 10:27:40;;;;;;;;;;;34.10;59.10;;;;;;5151434;27;20369;-62
2022/09/05 10:30:08;;;;;;;;;;;33.10;59.20;;;;;;5145081;27;20337;-63
2022/09/05 10:32:54;;;;;;;;;;;32.10;61.40;;;;;;5126520;27;19918;-64
2022/09/05 10:35:24;;;;;;;;;;;31.90;63.10;;;;;;5148325;27;19980;-63
2022/09/05 10:38:10;;;;;;;;;;;31.40;62.60;;;;;;5140649;27;19922;-66
2022/09/05 10:40:37;;;;;;;;;;;30.40;65.50;;;;;;5131256;28;19914;-64
2022/09/05 10:43:09;;;;;;;;;;;30.30;64.80;;;;;;5134955;27;19923;-63
2022/09/05 10:45:45;;;;;;;;;;;30.80;63.50;;;;;;5130847;27;19923;-65
2022/09/05 10:48:15;;;;;;;;;;;30.80;63.70;;;;;;5139963;27;20006;-63
2022/09/05 10:50:43;;;;;;;;;;;30.40;65.10;;;;;;5150619;27;19911;-63
2022/09/05 10:53:29;;;;;;;;;;;30.80;65.40;;;;;;5150405;27;20300;-64
2022/09/05 10:55:59;;;;;;;;;;;31.10;65.50;;;;;;5134364;27;19998;-64
2022/09/05 10:58:42;;;;;;;;;;;32.00;63.80;;;;;;5136139;27;19915;-63
2022/09/05 11:01:25;;;;;;;;;;;32.40;62.40;;;;;;5131050;27;20381;-63
2022/09/05 11:03:54;;;;;;;;;;;31.90;64.40;;;;;;5113958;27;19995;-65
2022/09/05 11:06:24;;;;;;;;;;;31.90;62.20;;;;;;5132967;27;19934;-62
2022/09/05 11:09:11;;;;;;;;;;;31.70;62.70;;;;;;5144995;27;19979;-62
2022/09/05 11:11:43;;;;;;;;;;;32.20;61.70;;;;;;5143470;27;19918;-62
2022/09/05 11:14:24;;;;;;;;;;;31.60;62.40;;;;;;5138425;27;19951;-62
2022/09/05 11:16:52;;;;;;;;;;;31.40;62.50;;;;;;5144688;27;19911;-63
2022/09/05 11:19:20;;;;;;;;;;;31.40;63.60;;;;;;5150600;27;19919;-67
2022/09/05 11:21:51;;;;;;;;;;;31.50;62.10;;;;;;5117610;27;19912;-64
2022/09/05 11:24:23;;;;;;;;;;;31.90;59.80;;;;;;5142247;27;20327;-63
2022/09/05 11:26:55;;;;;;;;;;;31.70;60.10;;;;;;5148562;27;20385;-62
2022/09/05 11:29:24;;;;;;;;;;;31.50;60.20;;;;;;5141290;27;19908;-62
2022/09/05 11:32:01;;;;;;;;;;;31.50;61.10;;;;;;5117016;28;19911;-62
2022/09/05 11:34:46;;;;;;;;;;;31.90;60.70;;;;;;5121558;27;19995;-63
2022/09/05 11:37:19;;;;;;;;;;;32.00;60.00;;;;;;5118058;27;19916;-63
2022/09/05 11:40:05;;;;;;;;;;;32.00;59.60;;;;;;5122963;27;19976;-63
2022/09/05 11:42:39;;;;;;;;;;;32.10;59.60;;;;;;5123772;27;19920;-63
2022/09/05 11:45:25;;;;;;;;;;;32.10;59.10;;;;;;5127466;27;20354;-62
2022/09/05 11:48:06;;;;;;;;;;;31.60;59.60;;;;;;5115736;28;19916;-64
2022/09/05 11:50:45;;;;;;;;;;;31.00;61.20;;;;;;5120024;27;20331;-62
2022/09/05 11:53:31;;;;;;;;;;;30.40;62.00;;;;;;5125766;27;20300;-62
2022/09/05 11:56:08;;;;;;;;;;;30.40;63.30;;;;;;5116518;27;19968;-63
2022/09/05 11:58:46;;;;;;;;;;;30.90;60.60;;;;;;5108585;28;19962;-62
2022/09/05 12:01:32;;;;;;;;;;;31.20;60.00;;;;;;5115961;27;19919;-62
2022/09/05 12:04:07;;;;;;;;;;;30.70;59.50;;;;;;5127225;27;20274;-61
2022/09/05 12:06:49;;;;;;;;;;;30.80;60.40;;;;;;5134075;27;20438;-62
2022/09/05 12:09:34;;;;;;;;;;;31.40;59.00;;;;;;5123666;27;19964;-63
2022/09/05 12:12:25;;;;;;;;;;;31.50;57.80;;;;;;5132936;27;20379;-62
2022/09/05 12:15:01;;;;;;;;;;;31.70;56.30;;;;;;5123614;27;19965;-62
2022/09/05 12:17:32;;;;;;;;;;;31.70;57.10;;;;;;5126876;27;19911;-63
2022/09/05 12:20:05;;;;;;;;;;;32.10;56.60;;;;;;5120026;27;20405;-63
2022/09/05 12:22:32;;;;;;;;;;;32.00;57.00;;;;;;5128766;27;20002;-62
2022/09/05 12:25:05;;;;;;;;;;;31.80;56.30;;;;;;5132965;27;19912;-62
2022/09/05 12:27:32;;;;;;;;;;;31.80;56.20;;;;;;5110076;27;19911;-64
2022/09/05 12:30:02;;;;;;;;;;;31.80;56.70;;;;;;5125352;27;19917;-62
2022/09/05 12:32:30;;;;;;;;;;;32.20;56.30;;;;;;5130189;27;19912;-61
2022/09/05 12:34:56;;;;;;;;;;;32.00;56.80;;;;;;5115962;27;20431;-62
2022/09/05 12:42:51;;;;;;;;;;;32.30;54.10;;;;;;5084945;27;19999;-71
2022/09/05 12:45:20;;;;;;;;;;;31.90;53.80;;;;;;5070494;28;20000;-70
2022/09/05 12:48:05;;;;;;;;;;;31.40;55.00;;;;;;5080972;28;19934;-71
2022/09/05 12:50:38;;;;;;;;;;;30.90;54.90;;;;;;5072109;28;19920;-71
2022/09/05 12:53:06;;;;;;;;;;;30.70;56.20;;;;;;5101361;28;20003;-70
2022/09/05 12:55:35;;;;;;;;;;;30.60;55.40;;;;;;5096380;28;19913;-70
2022/09/05 12:58:01;;;;;;;;;;;30.60;55.10;;;;;;5059133;28;20294;-72
2022/09/05 13:00:28;;;;;;;;;;;30.50;56.10;;;;;;5085331;28;19920;-70
2022/09/05 13:02:58;;;;;;;;;;;30.40;56.20;;;;;;5082821;28;20414;-70
2022/09/05 13:05:27;;;;;;;;;;;30.70;56.30;;;;;;5079511;28;19959;-70
2022/09/05 13:07:57;;;;;;;;;;;31.40;56.10;;;;;;5069618;28;19913;-70
2022/09/05 13:10:28;;;;;;;;;;;31.80;55.90;;;;;;5067687;28;20371;-70
2022/09/05 13:12:56;;;;;;;;;;;32.40;54.60;;;;;;5068141;28;19923;-70
2022/09/05 13:15:26;;;;;;;;;;;32.40;53.40;;;;;;5083346;28;19999;-70
2022/09/05 13:18:02;;;;;;;;;;;32.10;52.80;;;;;;5071009;28;19919;-70
2022/09/05 13:20:34;;;;;;;;;;;31.20;54.50;;;;;;5070950;28;19913;-70
2022/09/05 13:23:19;;;;;;;;;;;30.40;55.40;;;;;;5068801;28;19908;-69
2022/09/05 13:25:57;;;;;;;;;;;30.30;55.80;;;;;;5069980;28;20386;-70
2022/09/05 13:28:25;;;;;;;;;;;30.10;55.70;;;;;;5067627;28;19920;-69
2022/09/05 13:30:56;;;;;;;;;;;30.00;56.30;;;;;;5049544;28;19983;-70
2022/09/05 13:33:31;;;;;;;;;;;29.90;56.40;;;;;;5067001;28;19912;-70
2022/09/05 13:36:04;;;;;;;;;;;30.00;56.70;;;;;;5066177;28;19909;-70
2022/09/05 13:38:50;;;;;;;;;;;30.00;57.50;;;;;;5097761;28;20073;-72
2022/09/05 13:41:20;;;;;;;;;;;30.40;56.10;;;;;;5070048;28;19931;-70
2022/09/05 13:43:46;;;;;;;;;;;30.80;55.20;;;;;;5089946;28;19908;-70
2022/09/05 13:46:18;;;;;;;;;;;31.10;54.70;;;;;;5097246;28;19919;-71
2022/09/05 13:48:54;;;;;;;;;;;31.30;54.70;;;;;;5070233;28;19912;-70
2022/09/05 13:51:36;;;;;;;;;;;31.40;54.90;;;;;;5089603;28;20374;-70
2022/09/05 13:54:23;;;;;;;;;;;31.40;54.00;;;;;;5091951;28;19940;-70
2022/09/05 13:56:54;;;;;;;;;;;31.60;54.10;;;;;;5075129;28;20389;-70
2022/09/05 13:59:22;;;;;;;;;;;31.40;53.90;;;;;;5070916;28;19947;-70
2022/09/05 14:01:55;;;;;;;;;;;31.10;54.90;;;;;;5059076;28;19916;-71
2022/09/05 14:04:41;;;;;;;;;;;31.20;55.10;;;;;;5090259;28;19920;-72
2022/09/05 14:07:27;;;;;;;;;;;31.10;53.70;;;;;;5072178;28;20349;-70
2022/09/05 14:10:14;;;;;;;;;;;31.20;53.60;;;;;;5055412;28;20289;-70
2022/09/05 14:12:43;;;;;;;;;;;31.10;53.80;;;;;;5075245;28;19916;-71
2022/09/05 14:15:15;;;;;;;;;;;31.10;54.20;;;;;;5075085;28;19974;-71
2022/09/05 14:18:00;;;;;;;;;;;31.10;53.00;;;;;;5075122;28;19989;-72
2022/09/05 14:23:14;;;;;;;;;;;31.40;53.10;;;;;;5087889;28;20007;-71
2022/09/05 14:25:43;;;;;;;;;;;31.20;52.50;;;;;;5044560;28;19970;-72
2022/09/05 14:28:11;;;;;;;;;;;30.90;52.50;;;;;;5074053;28;20012;-71
2022/09/05 14:30:42;;;;;;;;;;;30.80;52.70;;;;;;5074953;28;19920;-71
2022/09/05 14:36:13;;;;;;;;;;;31.10;52.80;;;;;;5069296;28;19913;-64
2022/09/05 14:38:58;;;;;;;;;;;31.30;52.70;;;;;;5039626;28;20391;-63
2022/09/05 14:41:44;;;;;;;;;;;31.20;52.70;;;;;;5048422;28;20016;-63
2022/09/05 14:47:07;;;;;;;;;;;31.20;53.70;;;;;;5037366;28;19917;-63
2022/09/05 14:49:52;;;;;;;;;;;31.10;53.50;;;;;;5029101;28;19917;-63
2022/09/05 14:52:22;;;;;;;;;;;31.20;53.50;;;;;;5042207;28;19992;-64
2022/09/05 14:54:50;;;;;;;;;;;31.20;54.30;;;;;;5033708;28;19909;-63
2022/09/05 14:57:17;;;;;;;;;;;31.20;53.90;;;;;;5016399;28;20256;-63
2022/09/05 14:59:48;;;;;;;;;;;31.30;53.90;;;;;;5035440;28;19993;-62
2022/09/05 15:02:30;;;;;;;;;;;31.30;53.90;;;;;;5031915;28;19956;-63
2022/09/05 15:04:58;;;;;;;;;;;31.50;53.90;;;;;;5028051;28;20356;-62
2022/09/05 15:07:25;;;;;;;;;;;31.30;54.00;;;;;;5037745;28;20384;-63
2022/09/05 15:10:10;;;;;;;;;;;31.30;53.70;;;;;;5026990;28;19913;-62
2022/09/05 15:12:46;;;;;;;;;;;31.20;54.30;;;;;;5031758;28;20008;-63
2022/09/05 15:15:21;;;;;;;;;;;31.40;54.00;;;;;;5033387;28;19942;-63
2022/09/05 15:17:50;;;;;;;;;;;31.60;53.10;;;;;;5033123;28;20380;-63
2022/09/05 15:20:35;;;;;;;;;;;31.60;54.20;;;;;;5031676;28;19920;-64
2022/09/05 15:23:02;;;;;;;;;;;31.50;53.80;;;;;;5023020;28;20003;-63
2022/09/05 15:25:29;;;;;;;;;;;31.40;53.80;;;;;;5029922;28;19913;-63
2022/09/05 15:27:55;;;;;;;;;;;31.30;54.60;;;;;;5026701;28;20264;-64
2022/09/05 15:30:23;;;;;;;;;;;30.80;54.40;;;;;;5033219;28;19920;-63
2022/09/05 15:32:49;;;;;;;;;;;30.80;54.30;;;;;;5044101;28;20000;-63
2022/09/05 15:35:18;;;;;;;;;;;30.80;54.60;;;;;;5039081;28;20007;-63
2022/09/05 15:37:44;;;;;;;;;;;30.90;54.60;;;;;;5024068;28;20447;-66
2022/09/05 15:40:11;;;;;;;;;;;31.00;54.20;;;;;;5058205;28;19920;-64
2022/09/05 15:42:40;;;;;;;;;;;30.80;54.30;;;;;;5019229;28;19941;-64
2022/09/05 15:45:08;;;;;;;;;;;30.70;54.50;;;;;;5037627;28;19921;-63
2022/09/05 15:47:34;;;;;;;;;;;30.60;54.60;;;;;;5027005;28;19921;-63
2022/09/05 15:50:02;;;;;;;;;;;30.50;54.50;;;;;;5025037;28;20288;-64
2022/09/05 15:52:45;;;;;;;;;;;30.70;55.70;;;;;;5027728;28;19926;-63
2022/09/05 15:55:15;;;;;;;;;;;30.50;54.70;;;;;;5033763;28;19913;-63